sensor_id;sensor_type;location;lat;lon;timestamp;P1;durP1;ratioP1;P2;durP2;ratioP2
37777;SDS011;23615;51.506;7.678;2023-11-19T00:02:06;0.88;;;0.10;;
37777;SDS011;23615;51.506;7.678;2023-11-19T00:04:33;0.20;;;0.10;;
37777;SDS011;23615;51.506;7.678;2023-11-19T00:06:59;0.05;;;0.05;;
37777;SDS011;23615;51.506;7.678;2023-11-19T00:09:28;0.22;;;0.10;;
37777;SDS011;23615;51.506;7.678;2023-11-19T00:11:54;0.35;;;0.00;;
37777;SDS011;23615;51.506;7.678;2023-11-19T00:14:19;0.20;;;0.10;;
37777;SDS011;23615;51.506;7.678;2023-11-19T00:16:44;0.10;;;0.00;;
37777;SDS011;23615;51.506;7.678;2023-11-19T00:19:09;0.33;;;0.00;;
37777;SDS011;23615;51.506;7.678;2023-11-19T00:21:35;0.00;;;0.00;;
37777;SDS011;23615;51.506;7.678;2023-11-19T00:24:01;0.00;;;0.00;;
37777;SDS011;23615;51.506;7.678;2023-11-19T00:26:26;0.00;;;0.00;;
37777;SDS011;23615;51.506;7.678;2023-11-19T00:28:52;0.57;;;0.00;;
37777;SDS011;23615;51.506;7.678;2023-11-19T00:31:17;1.10;;;0.00;;
37777;SDS011;23615;51.506;7.678;2023-11-19T00:33:43;0.00;;;0.00;;
37777;SDS011;23615;51.506;7.678;2023-11-19T00:36:08;0.00;;;0.00;;
37777;SDS011;23615;51.506;7.678;2023-11-19T00:38:34;0.00;;;0.00;;
37777;SDS011;23615;51.506;7.678;2023-11-19T00:40:59;0.00;;;0.00;;
37777;SDS011;23615;51.506;7.678;2023-11-19T00:43:24;0.70;;;0.10;;
37777;SDS011;23615;51.506;7.678;2023-11-19T00:45:51;0.03;;;0.03;;
37777;SDS011;23615;51.506;7.678;2023-11-19T00:48:16;0.10;;;0.10;;
37777;SDS011;23615;51.506;7.678;2023-11-19T00:50:42;0.10;;;0.10;;
37777;SDS011;23615;51.506;7.678;2023-11-19T00:53:09;0.55;;;0.10;;
37777;SDS011;23615;51.506;7.678;2023-11-19T00:55:35;0.37;;;0.10;;
37777;SDS011;23615;51.506;7.678;2023-11-19T00:58:00;0.80;;;0.10;;
37777;SDS011;23615;51.506;7.678;2023-11-19T01:00:25;0.43;;;0.20;;
37777;SDS011;23615;51.506;7.678;2023-11-19T01:02:52;0.20;;;0.10;;
37777;SDS011;23615;51.506;7.678;2023-11-19T01:05:17;0.17;;;0.10;;
37777;SDS011;23615;51.506;7.678;2023-11-19T01:07:47;0.25;;;0.10;;
37777;SDS011;23615;51.506;7.678;2023-11-19T01:10:12;0.20;;;0.20;;
37777;SDS011;23615;51.506;7.678;2023-11-19T01:12:37;0.20;;;0.17;;
37777;SDS011;23615;51.506;7.678;2023-11-19T01:15:03;0.20;;;0.20;;
37777;SDS011;23615;51.506;7.678;2023-11-19T01:17:30;1.85;;;0.22;;
37777;SDS011;23615;51.506;7.678;2023-11-19T01:19:56;0.30;;;0.20;;
37777;SDS011;23615;51.506;7.678;2023-11-19T01:22:22;0.40;;;0.40;;
37777;SDS011;23615;51.506;7.678;2023-11-19T01:24:48;0.60;;;0.30;;
37777;SDS011;23615;51.506;7.678;2023-11-19T01:27:13;0.40;;;0.20;;
37777;SDS011;23615;51.506;7.678;2023-11-19T01:29:39;0.20;;;0.20;;
37777;SDS011;23615;51.506;7.678;2023-11-19T01:32:04;1.02;;;0.40;;
37777;SDS011;23615;51.506;7.678;2023-11-19T01:34:30;0.52;;;0.52;;
37777;SDS011;23615;51.506;7.678;2023-11-19T01:36:55;0.40;;;0.40;;
37777;SDS011;23615;51.506;7.678;2023-11-19T01:39:20;1.20;;;0.40;;
37777;SDS011;23615;51.506;7.678;2023-11-19T01:41:46;0.97;;;0.50;;
37777;SDS011;23615;51.506;7.678;2023-11-19T01:44:11;1.60;;;0.70;;
37777;SDS011;23615;51.506;7.678;2023-11-19T01:46:37;0.70;;;0.70;;
37777;SDS011;23615;51.506;7.678;2023-11-19T01:49:04;1.90;;;0.73;;
37777;SDS011;23615;51.506;7.678;2023-11-19T01:51:30;1.40;;;0.80;;
37777;SDS011;23615;51.506;7.678;2023-11-19T01:53:56;0.87;;;0.70;;
37777;SDS011;23615;51.506;7.678;2023-11-19T01:56:22;0.50;;;0.50;;
37777;SDS011;23615;51.506;7.678;2023-11-19T01:58:49;2.35;;;0.60;;
37777;SDS011;23615;51.506;7.678;2023-11-19T02:01:15;0.57;;;0.57;;
37777;SDS011;23615;51.506;7.678;2023-11-19T02:03:41;0.50;;;0.50;;
37777;SDS011;23615;51.506;7.678;2023-11-19T02:06:06;2.43;;;0.70;;
37777;SDS011;23615;51.506;7.678;2023-11-19T02:08:32;0.70;;;0.40;;
37777;SDS011;23615;51.506;7.678;2023-11-19T02:10:57;0.60;;;0.50;;
37777;SDS011;23615;51.506;7.678;2023-11-19T02:13:23;1.02;;;0.50;;
37777;SDS011;23615;51.506;7.678;2023-11-19T02:15:50;1.60;;;0.60;;
37777;SDS011;23615;51.506;7.678;2023-11-19T02:20:48;0.38;;;0.38;;
37777;SDS011;23615;51.506;7.678;2023-11-19T02:23:15;1.70;;;0.50;;
37777;SDS011;23615;51.506;7.678;2023-11-19T02:25:40;0.63;;;0.40;;
37777;SDS011;23615;51.506;7.678;2023-11-19T02:28:06;0.60;;;0.60;;
37777;SDS011;23615;51.506;7.678;2023-11-19T02:30:32;0.70;;;0.40;;
37777;SDS011;23615;51.506;7.678;2023-11-19T02:32:58;1.90;;;0.40;;
37777;SDS011;23615;51.506;7.678;2023-11-19T02:35:26;0.68;;;0.40;;
37777;SDS011;23615;51.506;7.678;2023-11-19T02:37:52;0.30;;;0.30;;
37777;SDS011;23615;51.506;7.678;2023-11-19T02:40:19;0.40;;;0.30;;
37777;SDS011;23615;51.506;7.678;2023-11-19T02:42:44;0.97;;;0.40;;
37777;SDS011;23615;51.506;7.678;2023-11-19T02:45:09;1.40;;;0.40;;
37777;SDS011;23615;51.506;7.678;2023-11-19T02:47:39;0.52;;;0.52;;
37777;SDS011;23615;51.506;7.678;2023-11-19T02:50:11;0.55;;;0.50;;
37777;SDS011;23615;51.506;7.678;2023-11-19T02:52:40;1.15;;;0.50;;
37777;SDS011;23615;51.506;7.678;2023-11-19T02:55:06;1.02;;;0.80;;
37777;SDS011;23615;51.506;7.678;2023-11-19T02:57:35;1.13;;;0.47;;
37777;SDS011;23615;51.506;7.678;2023-11-19T03:00:00;2.05;;;0.82;;
37777;SDS011;23615;51.506;7.678;2023-11-19T03:02:25;2.73;;;0.60;;
37777;SDS011;23615;51.506;7.678;2023-11-19T03:04:58;1.25;;;0.40;;
37777;SDS011;23615;51.506;7.678;2023-11-19T03:07:24;2.13;;;0.65;;
37777;SDS011;23615;51.506;7.678;2023-11-19T03:09:50;1.63;;;0.40;;
37777;SDS011;23615;51.506;7.678;2023-11-19T03:12:15;2.40;;;0.50;;
37777;SDS011;23615;51.506;7.678;2023-11-19T03:14:40;2.30;;;0.60;;
37777;SDS011;23615;51.506;7.678;2023-11-19T03:17:05;2.20;;;0.40;;
37777;SDS011;23615;51.506;7.678;2023-11-19T03:19:31;3.23;;;0.77;;
37777;SDS011;23615;51.506;7.678;2023-11-19T03:21:56;2.37;;;0.47;;
37777;SDS011;23615;51.506;7.678;2023-11-19T03:24:21;4.30;;;0.80;;
37777;SDS011;23615;51.506;7.678;2023-11-19T03:26:50;4.97;;;0.83;;
37777;SDS011;23615;51.506;7.678;2023-11-19T03:29:15;4.15;;;0.63;;
37777;SDS011;23615;51.506;7.678;2023-11-19T03:31:44;3.93;;;0.87;;
37777;SDS011;23615;51.506;7.678;2023-11-19T03:34:09;4.60;;;0.85;;
37777;SDS011;23615;51.506;7.678;2023-11-19T03:36:35;7.20;;;1.00;;
37777;SDS011;23615;51.506;7.678;2023-11-19T03:39:00;4.83;;;1.30;;
37777;SDS011;23615;51.506;7.678;2023-11-19T03:41:25;10.07;;;1.27;;
37777;SDS011;23615;51.506;7.678;2023-11-19T03:43:51;6.83;;;0.90;;
37777;SDS011;23615;51.506;7.678;2023-11-19T03:46:19;6.10;;;1.33;;
37777;SDS011;23615;51.506;7.678;2023-11-19T03:48:48;5.95;;;1.08;;
37777;SDS011;23615;51.506;7.678;2023-11-19T03:51:14;5.53;;;0.73;;
37777;SDS011;23615;51.506;7.678;2023-11-19T03:53:43;7.38;;;1.48;;
37777;SDS011;23615;51.506;7.678;2023-11-19T03:56:09;4.63;;;0.90;;
37777;SDS011;23615;51.506;7.678;2023-11-19T03:58:36;9.13;;;1.45;;
37777;SDS011;23615;51.506;7.678;2023-11-19T04:01:01;7.50;;;1.60;;
37777;SDS011;23615;51.506;7.678;2023-11-19T04:03:27;9.10;;;1.17;;
37777;SDS011;23615;51.506;7.678;2023-11-19T04:05:53;7.97;;;1.35;;
37777;SDS011;23615;51.506;7.678;2023-11-19T04:08:18;6.40;;;1.02;;
37777;SDS011;23615;51.506;7.678;2023-11-19T04:10:43;8.93;;;1.50;;
37777;SDS011;23615;51.506;7.678;2023-11-19T04:13:09;6.40;;;1.00;;
37777;SDS011;23615;51.506;7.678;2023-11-19T04:15:35;7.72;;;1.17;;
37777;SDS011;23615;51.506;7.678;2023-11-19T04:18:00;7.83;;;1.57;;
37777;SDS011;23615;51.506;7.678;2023-11-19T04:20:25;8.67;;;1.70;;
37777;SDS011;23615;51.506;7.678;2023-11-19T04:22:50;12.17;;;2.67;;
37777;SDS011;23615;51.506;7.678;2023-11-19T04:25:16;7.93;;;2.20;;
37777;SDS011;23615;51.506;7.678;2023-11-19T04:27:41;9.38;;;1.67;;
37777;SDS011;23615;51.506;7.678;2023-11-19T04:30:07;8.45;;;1.33;;
37777;SDS011;23615;51.506;7.678;2023-11-19T04:32:35;12.13;;;2.13;;
37777;SDS011;23615;51.506;7.678;2023-11-19T04:35:01;8.43;;;1.77;;
37777;SDS011;23615;51.506;7.678;2023-11-19T04:37:26;10.83;;;1.90;;
37777;SDS011;23615;51.506;7.678;2023-11-19T04:39:51;8.50;;;1.97;;
37777;SDS011;23615;51.506;7.678;2023-11-19T04:42:16;8.20;;;1.40;;
37777;SDS011;23615;51.506;7.678;2023-11-19T04:44:42;6.70;;;1.63;;
37777;SDS011;23615;51.506;7.678;2023-11-19T04:47:08;9.13;;;1.47;;
37777;SDS011;23615;51.506;7.678;2023-11-19T04:49:35;10.68;;;1.20;;
37777;SDS011;23615;51.506;7.678;2023-11-19T04:52:07;10.55;;;2.10;;
37777;SDS011;23615;51.506;7.678;2023-11-19T04:54:33;9.90;;;1.17;;
37777;SDS011;23615;51.506;7.678;2023-11-19T04:56:58;11.00;;;1.37;;
37777;SDS011;23615;51.506;7.678;2023-11-19T04:59:23;8.70;;;1.88;;
37777;SDS011;23615;51.506;7.678;2023-11-19T05:01:49;11.15;;;2.05;;
37777;SDS011;23615;51.506;7.678;2023-11-19T05:04:15;8.30;;;2.15;;
37777;SDS011;23615;51.506;7.678;2023-11-19T05:06:40;11.10;;;1.67;;
37777;SDS011;23615;51.506;7.678;2023-11-19T05:09:06;7.80;;;1.40;;
37777;SDS011;23615;51.506;7.678;2023-11-19T05:11:34;11.57;;;1.80;;
37777;SDS011;23615;51.506;7.678;2023-11-19T05:13:59;9.68;;;1.55;;
37777;SDS011;23615;51.506;7.678;2023-11-19T05:16:25;8.48;;;2.17;;
37777;SDS011;23615;51.506;7.678;2023-11-19T05:18:51;13.13;;;2.05;;
37777;SDS011;23615;51.506;7.678;2023-11-19T05:21:16;12.67;;;2.67;;
37777;SDS011;23615;51.506;7.678;2023-11-19T05:23:42;12.73;;;2.07;;
37777;SDS011;23615;51.506;7.678;2023-11-19T05:26:07;14.17;;;2.13;;
37777;SDS011;23615;51.506;7.678;2023-11-19T05:28:33;12.60;;;2.58;;
37777;SDS011;23615;51.506;7.678;2023-11-19T05:30:59;14.68;;;2.83;;
37777;SDS011;23615;51.506;7.678;2023-11-19T05:33:24;14.60;;;2.00;;
37777;SDS011;23615;51.506;7.678;2023-11-19T05:35:50;15.07;;;2.40;;
37777;SDS011;23615;51.506;7.678;2023-11-19T05:38:15;14.37;;;2.70;;
37777;SDS011;23615;51.506;7.678;2023-11-19T05:40:41;11.13;;;2.33;;
37777;SDS011;23615;51.506;7.678;2023-11-19T05:43:06;12.65;;;2.50;;
37777;SDS011;23615;51.506;7.678;2023-11-19T05:45:32;11.67;;;2.80;;
37777;SDS011;23615;51.506;7.678;2023-11-19T05:47:57;14.18;;;2.97;;
37777;SDS011;23615;51.506;7.678;2023-11-19T05:50:23;11.70;;;2.42;;
37777;SDS011;23615;51.506;7.678;2023-11-19T05:52:48;16.05;;;2.25;;
37777;SDS011;23615;51.506;7.678;2023-11-19T05:55:14;14.38;;;2.72;;
37777;SDS011;23615;51.506;7.678;2023-11-19T05:57:39;12.70;;;2.20;;
37777;SDS011;23615;51.506;7.678;2023-11-19T06:00:05;12.55;;;2.10;;
37777;SDS011;23615;51.506;7.678;2023-11-19T06:02:33;14.07;;;2.58;;
37777;SDS011;23615;51.506;7.678;2023-11-19T06:04:59;10.07;;;2.20;;
37777;SDS011;23615;51.506;7.678;2023-11-19T06:07:25;16.13;;;2.70;;
37777;SDS011;23615;51.506;7.678;2023-11-19T06:09:50;14.17;;;3.10;;
37777;SDS011;23615;51.506;7.678;2023-11-19T06:12:15;12.23;;;2.70;;
37777;SDS011;23615;51.506;7.678;2023-11-19T06:14:41;12.25;;;2.50;;
37777;SDS011;23615;51.506;7.678;2023-11-19T06:17:06;16.13;;;2.57;;
37777;SDS011;23615;51.506;7.678;2023-11-19T06:19:33;12.57;;;2.75;;
37777;SDS011;23615;51.506;7.678;2023-11-19T06:21:59;14.70;;;2.85;;
37777;SDS011;23615;51.506;7.678;2023-11-19T06:24:24;15.33;;;2.13;;
37777;SDS011;23615;51.506;7.678;2023-11-19T06:26:49;11.67;;;1.83;;
37777;SDS011;23615;51.506;7.678;2023-11-19T06:29:14;14.57;;;2.92;;
37777;SDS011;23615;51.506;7.678;2023-11-19T06:31:43;16.27;;;2.72;;
37777;SDS011;23615;51.506;7.678;2023-11-19T06:34:09;11.88;;;2.63;;
37777;SDS011;23615;51.506;7.678;2023-11-19T06:36:35;13.03;;;2.37;;
37777;SDS011;23615;51.506;7.678;2023-11-19T06:39:00;13.63;;;2.37;;
37777;SDS011;23615;51.506;7.678;2023-11-19T06:41:26;12.13;;;2.47;;
37777;SDS011;23615;51.506;7.678;2023-11-19T06:43:53;12.15;;;2.70;;
37777;SDS011;23615;51.506;7.678;2023-11-19T06:46:19;17.23;;;2.92;;
37777;SDS011;23615;51.506;7.678;2023-11-19T06:48:44;14.27;;;3.00;;
37777;SDS011;23615;51.506;7.678;2023-11-19T06:51:10;14.90;;;3.53;;
37777;SDS011;23615;51.506;7.678;2023-11-19T06:53:36;13.20;;;2.42;;
37777;SDS011;23615;51.506;7.678;2023-11-19T06:56:01;14.57;;;3.00;;
37777;SDS011;23615;51.506;7.678;2023-11-19T06:58:31;13.32;;;2.60;;
37777;SDS011;23615;51.506;7.678;2023-11-19T07:00:59;14.50;;;2.80;;
37777;SDS011;23615;51.506;7.678;2023-11-19T07:03:24;15.32;;;3.08;;
37777;SDS011;23615;51.506;7.678;2023-11-19T07:05:50;13.37;;;2.67;;
37777;SDS011;23615;51.506;7.678;2023-11-19T07:08:15;16.13;;;3.07;;
37777;SDS011;23615;51.506;7.678;2023-11-19T07:10:40;12.30;;;2.67;;
37777;SDS011;23615;51.506;7.678;2023-11-19T07:13:05;13.80;;;2.60;;
37777;SDS011;23615;51.506;7.678;2023-11-19T07:15:31;13.67;;;2.67;;
37777;SDS011;23615;51.506;7.678;2023-11-19T07:17:57;14.50;;;2.55;;
37777;SDS011;23615;51.506;7.678;2023-11-19T07:20:24;12.40;;;2.30;;
37777;SDS011;23615;51.506;7.678;2023-11-19T07:22:51;12.03;;;2.00;;
37777;SDS011;23615;51.506;7.678;2023-11-19T07:25:17;16.40;;;3.00;;
37777;SDS011;23615;51.506;7.678;2023-11-19T07:27:42;14.50;;;2.57;;
37777;SDS011;23615;51.506;7.678;2023-11-19T07:30:08;12.23;;;2.70;;
37777;SDS011;23615;51.506;7.678;2023-11-19T07:32:33;15.00;;;3.17;;
37777;SDS011;23615;51.506;7.678;2023-11-19T07:34:58;14.23;;;3.47;;
37777;SDS011;23615;51.506;7.678;2023-11-19T07:37:24;14.73;;;2.63;;
37777;SDS011;23615;51.506;7.678;2023-11-19T07:39:49;18.27;;;2.80;;
37777;SDS011;23615;51.506;7.678;2023-11-19T07:42:15;12.10;;;2.80;;
37777;SDS011;23615;51.506;7.678;2023-11-19T07:44:40;11.13;;;2.13;;
37777;SDS011;23615;51.506;7.678;2023-11-19T07:47:06;17.70;;;3.45;;
37777;SDS011;23615;51.506;7.678;2023-11-19T07:49:31;12.60;;;2.93;;
37777;SDS011;23615;51.506;7.678;2023-11-19T07:51:57;15.60;;;3.57;;
37777;SDS011;23615;51.506;7.678;2023-11-19T07:54:22;15.30;;;3.07;;
37777;SDS011;23615;51.506;7.678;2023-11-19T07:56:47;11.18;;;2.78;;
37777;SDS011;23615;51.506;7.678;2023-11-19T07:59:14;12.98;;;2.47;;
37777;SDS011;23615;51.506;7.678;2023-11-19T08:01:39;13.00;;;3.00;;
37777;SDS011;23615;51.506;7.678;2023-11-19T08:04:05;16.93;;;2.53;;
37777;SDS011;23615;51.506;7.678;2023-11-19T08:06:30;17.27;;;2.57;;
37777;SDS011;23615;51.506;7.678;2023-11-19T08:08:56;12.57;;;2.80;;
37777;SDS011;23615;51.506;7.678;2023-11-19T08:11:21;18.20;;;3.17;;
37777;SDS011;23615;51.506;7.678;2023-11-19T08:13:46;15.53;;;2.63;;
37777;SDS011;23615;51.506;7.678;2023-11-19T08:16:12;20.90;;;2.83;;
37777;SDS011;23615;51.506;7.678;2023-11-19T08:18:37;12.70;;;2.75;;
37777;SDS011;23615;51.506;7.678;2023-11-19T08:21:03;11.60;;;2.20;;
37777;SDS011;23615;51.506;7.678;2023-11-19T08:23:29;15.50;;;2.55;;
37777;SDS011;23615;51.506;7.678;2023-11-19T08:25:55;14.18;;;3.15;;
37777;SDS011;23615;51.506;7.678;2023-11-19T08:28:20;15.25;;;2.72;;
37777;SDS011;23615;51.506;7.678;2023-11-19T08:30:45;16.20;;;2.10;;
37777;SDS011;23615;51.506;7.678;2023-11-19T08:33:11;17.37;;;3.30;;
37777;SDS011;23615;51.506;7.678;2023-11-19T08:35:36;12.80;;;2.50;;
37777;SDS011;23615;51.506;7.678;2023-11-19T08:38:01;17.13;;;3.37;;
37777;SDS011;23615;51.506;7.678;2023-11-19T08:40:27;14.37;;;2.43;;
37777;SDS011;23615;51.506;7.678;2023-11-19T08:42:52;11.27;;;2.40;;
37777;SDS011;23615;51.506;7.678;2023-11-19T08:45:18;15.43;;;2.67;;
37777;SDS011;23615;51.506;7.678;2023-11-19T08:47:43;13.55;;;2.58;;
37777;SDS011;23615;51.506;7.678;2023-11-19T08:50:10;17.55;;;2.67;;
37777;SDS011;23615;51.506;7.678;2023-11-19T08:52:36;15.48;;;3.00;;
37777;SDS011;23615;51.506;7.678;2023-11-19T08:55:01;17.23;;;3.00;;
37777;SDS011;23615;51.506;7.678;2023-11-19T08:57:27;22.27;;;4.38;;
37777;SDS011;23615;51.506;7.678;2023-11-19T08:59:53;13.67;;;2.97;;
37777;SDS011;23615;51.506;7.678;2023-11-19T09:02:18;19.13;;;3.87;;
37777;SDS011;23615;51.506;7.678;2023-11-19T09:04:43;16.83;;;3.70;;
37777;SDS011;23615;51.506;7.678;2023-11-19T09:07:09;18.10;;;3.83;;
37777;SDS011;23615;51.506;7.678;2023-11-19T09:09:37;19.13;;;3.65;;
37777;SDS011;23615;51.506;7.678;2023-11-19T09:12:02;14.03;;;2.80;;
37777;SDS011;23615;51.506;7.678;2023-11-19T09:14:31;15.18;;;2.80;;
37777;SDS011;23615;51.506;7.678;2023-11-19T09:16:57;15.37;;;3.17;;
37777;SDS011;23615;51.506;7.678;2023-11-19T09:19:23;16.23;;;3.60;;
37777;SDS011;23615;51.506;7.678;2023-11-19T09:21:48;19.17;;;3.95;;
37777;SDS011;23615;51.506;7.678;2023-11-19T09:24:14;16.67;;;3.33;;
37777;SDS011;23615;51.506;7.678;2023-11-19T09:26:39;15.43;;;2.55;;
37777;SDS011;23615;51.506;7.678;2023-11-19T09:29:06;21.95;;;4.13;;
37777;SDS011;23615;51.506;7.678;2023-11-19T09:31:32;18.15;;;3.95;;
37777;SDS011;23615;51.506;7.678;2023-11-19T09:33:58;14.63;;;2.88;;
37777;SDS011;23615;51.506;7.678;2023-11-19T09:36:23;19.43;;;3.70;;
37777;SDS011;23615;51.506;7.678;2023-11-19T09:38:49;16.70;;;3.60;;
37777;SDS011;23615;51.506;7.678;2023-11-19T09:41:14;12.90;;;3.57;;
37777;SDS011;23615;51.506;7.678;2023-11-19T09:43:40;18.13;;;3.22;;
37777;SDS011;23615;51.506;7.678;2023-11-19T09:46:07;16.17;;;3.25;;
37777;SDS011;23615;51.506;7.678;2023-11-19T09:48:36;15.85;;;2.88;;
37777;SDS011;23615;51.506;7.678;2023-11-19T09:51:02;14.07;;;3.00;;
37777;SDS011;23615;51.506;7.678;2023-11-19T09:53:29;16.40;;;2.95;;
37777;SDS011;23615;51.506;7.678;2023-11-19T09:55:55;17.08;;;3.33;;
37777;SDS011;23615;51.506;7.678;2023-11-19T09:58:20;15.37;;;3.00;;
37777;SDS011;23615;51.506;7.678;2023-11-19T10:00:46;15.30;;;3.30;;
37777;SDS011;23615;51.506;7.678;2023-11-19T10:03:13;15.32;;;3.10;;
37777;SDS011;23615;51.506;7.678;2023-11-19T10:05:38;21.70;;;3.58;;
37777;SDS011;23615;51.506;7.678;2023-11-19T10:08:05;19.20;;;3.10;;
37777;SDS011;23615;51.506;7.678;2023-11-19T10:10:30;16.35;;;2.70;;
37777;SDS011;23615;51.506;7.678;2023-11-19T10:12:56;15.57;;;3.20;;
37777;SDS011;23615;51.506;7.678;2023-11-19T10:15:23;18.15;;;3.03;;
37777;SDS011;23615;51.506;7.678;2023-11-19T10:17:58;16.95;;;3.42;;
37777;SDS011;23615;51.506;7.678;2023-11-19T10:20:24;14.90;;;2.92;;
37777;SDS011;23615;51.506;7.678;2023-11-19T10:22:53;14.73;;;2.43;;
37777;SDS011;23615;51.506;7.678;2023-11-19T10:25:26;15.60;;;2.50;;
37777;SDS011;23615;51.506;7.678;2023-11-19T10:27:53;12.77;;;2.53;;
37777;SDS011;23615;51.506;7.678;2023-11-19T10:30:28;17.27;;;3.10;;
37777;SDS011;23615;51.506;7.678;2023-11-19T10:33:13;18.50;;;3.22;;
37777;SDS011;23615;51.506;7.678;2023-11-19T10:35:55;19.23;;;3.43;;
37777;SDS011;23615;51.506;7.678;2023-11-19T10:38:22;13.88;;;2.30;;
37777;SDS011;23615;51.506;7.678;2023-11-19T10:40:48;17.52;;;3.00;;
37777;SDS011;23615;51.506;7.678;2023-11-19T10:43:14;13.57;;;3.00;;
37777;SDS011;23615;51.506;7.678;2023-11-19T10:45:40;17.00;;;3.47;;
37777;SDS011;23615;51.506;7.678;2023-11-19T10:48:06;18.02;;;3.80;;
37777;SDS011;23615;51.506;7.678;2023-11-19T10:50:32;18.15;;;3.25;;
37777;SDS011;23615;51.506;7.678;2023-11-19T10:53:02;16.80;;;3.60;;
37777;SDS011;23615;51.506;7.678;2023-11-19T10:55:29;12.75;;;3.10;;
37777;SDS011;23615;51.506;7.678;2023-11-19T10:58:00;13.98;;;3.25;;
37777;SDS011;23615;51.506;7.678;2023-11-19T11:00:29;13.10;;;3.13;;
37777;SDS011;23615;51.506;7.678;2023-11-19T11:03:02;16.15;;;3.20;;
37777;SDS011;23615;51.506;7.678;2023-11-19T11:05:35;14.98;;;2.97;;
37777;SDS011;23615;51.506;7.678;2023-11-19T11:08:03;15.77;;;3.17;;
37777;SDS011;23615;51.506;7.678;2023-11-19T11:10:31;16.25;;;3.38;;
37777;SDS011;23615;51.506;7.678;2023-11-19T11:13:01;16.65;;;3.33;;
37777;SDS011;23615;51.506;7.678;2023-11-19T11:15:28;18.70;;;2.90;;
37777;SDS011;23615;51.506;7.678;2023-11-19T11:17:57;16.70;;;3.40;;
37777;SDS011;23615;51.506;7.678;2023-11-19T11:20:31;13.90;;;3.13;;
37777;SDS011;23615;51.506;7.678;2023-11-19T11:36:31;17.05;;;2.85;;
37777;SDS011;23615;51.506;7.678;2023-11-19T11:39:10;15.77;;;3.08;;
37777;SDS011;23615;51.506;7.678;2023-11-19T11:41:36;13.13;;;2.73;;
37777;SDS011;23615;51.506;7.678;2023-11-19T11:44:01;13.83;;;2.90;;
37777;SDS011;23615;51.506;7.678;2023-11-19T11:49:05;17.15;;;2.85;;
37777;SDS011;23615;51.506;7.678;2023-11-19T11:54:09;18.27;;;3.10;;
37777;SDS011;23615;51.506;7.678;2023-11-19T11:57:02;15.50;;;3.28;;
37777;SDS011;23615;51.506;7.678;2023-11-19T11:59:34;15.85;;;2.78;;
37777;SDS011;23615;51.506;7.678;2023-11-19T12:02:03;15.60;;;2.55;;
37777;SDS011;23615;51.506;7.678;2023-11-19T12:04:28;12.63;;;2.80;;
37777;SDS011;23615;51.506;7.678;2023-11-19T12:07:06;15.40;;;2.83;;
37777;SDS011;23615;51.506;7.678;2023-11-19T12:09:42;13.18;;;2.65;;
37777;SDS011;23615;51.506;7.678;2023-11-19T12:12:22;13.90;;;3.40;;
37777;SDS011;23615;51.506;7.678;2023-11-19T12:15:07;16.67;;;3.28;;
37777;SDS011;23615;51.506;7.678;2023-11-19T12:17:37;15.27;;;3.38;;
37777;SDS011;23615;51.506;7.678;2023-11-19T12:20:09;14.07;;;2.27;;
37777;SDS011;23615;51.506;7.678;2023-11-19T12:22:37;14.77;;;3.07;;
37777;SDS011;23615;51.506;7.678;2023-11-19T12:25:07;12.25;;;2.58;;
37777;SDS011;23615;51.506;7.678;2023-11-19T12:27:34;15.65;;;2.30;;
37777;SDS011;23615;51.506;7.678;2023-11-19T12:30:00;10.93;;;2.20;;
37777;SDS011;23615;51.506;7.678;2023-11-19T12:32:26;12.73;;;2.00;;
37777;SDS011;23615;51.506;7.678;2023-11-19T12:34:51;13.60;;;2.23;;
37777;SDS011;23615;51.506;7.678;2023-11-19T12:37:16;12.20;;;2.17;;
37777;SDS011;23615;51.506;7.678;2023-11-19T12:39:42;12.57;;;2.03;;
37777;SDS011;23615;51.506;7.678;2023-11-19T12:42:08;13.70;;;2.47;;
37777;SDS011;23615;51.506;7.678;2023-11-19T12:44:33;12.03;;;2.47;;
37777;SDS011;23615;51.506;7.678;2023-11-19T12:47:06;12.27;;;2.83;;
37777;SDS011;23615;51.506;7.678;2023-11-19T12:49:35;10.18;;;2.85;;
37777;SDS011;23615;51.506;7.678;2023-11-19T12:52:00;11.75;;;2.60;;
37777;SDS011;23615;51.506;7.678;2023-11-19T12:54:33;15.20;;;2.47;;
37777;SDS011;23615;51.506;7.678;2023-11-19T12:56:59;10.30;;;1.83;;
37777;SDS011;23615;51.506;7.678;2023-11-19T12:59:24;11.07;;;2.07;;
37777;SDS011;23615;51.506;7.678;2023-11-19T13:01:59;7.43;;;2.25;;
37777;SDS011;23615;51.506;7.678;2023-11-19T13:04:28;12.10;;;2.00;;
37777;SDS011;23615;51.506;7.678;2023-11-19T13:06:59;11.20;;;2.03;;
37777;SDS011;23615;51.506;7.678;2023-11-19T13:09:28;13.52;;;2.20;;
37777;SDS011;23615;51.506;7.678;2023-11-19T13:11:54;11.77;;;2.42;;
37777;SDS011;23615;51.506;7.678;2023-11-19T13:14:20;10.82;;;2.05;;
37777;SDS011;23615;51.506;7.678;2023-11-19T13:16:46;13.57;;;2.40;;
37777;SDS011;23615;51.506;7.678;2023-11-19T13:19:12;10.95;;;3.10;;
37777;SDS011;23615;51.506;7.678;2023-11-19T13:21:37;12.00;;;2.63;;
37777;SDS011;23615;51.506;7.678;2023-11-19T13:24:04;11.30;;;2.30;;
37777;SDS011;23615;51.506;7.678;2023-11-19T13:26:30;12.95;;;2.20;;
37777;SDS011;23615;51.506;7.678;2023-11-19T13:28:56;12.30;;;2.07;;
37777;SDS011;23615;51.506;7.678;2023-11-19T13:31:22;13.07;;;2.27;;
37777;SDS011;23615;51.506;7.678;2023-11-19T13:33:47;11.80;;;2.13;;
37777;SDS011;23615;51.506;7.678;2023-11-19T13:36:13;12.50;;;2.67;;
37777;SDS011;23615;51.506;7.678;2023-11-19T13:38:38;16.23;;;2.80;;
37777;SDS011;23615;51.506;7.678;2023-11-19T13:41:06;13.85;;;2.45;;
37777;SDS011;23615;51.506;7.678;2023-11-19T13:43:31;15.37;;;2.57;;
37777;SDS011;23615;51.506;7.678;2023-11-19T13:45:57;11.18;;;1.92;;
37777;SDS011;23615;51.506;7.678;2023-11-19T13:48:23;11.13;;;2.08;;
37777;SDS011;23615;51.506;7.678;2023-11-19T13:50:49;9.85;;;1.80;;
37777;SDS011;23615;51.506;7.678;2023-11-19T13:53:15;9.07;;;1.88;;
37777;SDS011;23615;51.506;7.678;2023-11-19T13:55:41;10.10;;;2.03;;
37777;SDS011;23615;51.506;7.678;2023-11-19T13:58:07;9.82;;;1.83;;
37777;SDS011;23615;51.506;7.678;2023-11-19T14:00:32;9.20;;;1.25;;
37777;SDS011;23615;51.506;7.678;2023-11-19T14:02:57;9.63;;;1.83;;
37777;SDS011;23615;51.506;7.678;2023-11-19T14:05:23;5.90;;;1.37;;
37777;SDS011;23615;51.506;7.678;2023-11-19T14:07:48;11.63;;;1.63;;
37777;SDS011;23615;51.506;7.678;2023-11-19T14:10:14;7.03;;;1.50;;
37777;SDS011;23615;51.506;7.678;2023-11-19T14:12:40;11.05;;;1.45;;
37777;SDS011;23615;51.506;7.678;2023-11-19T14:15:06;11.55;;;2.28;;
37777;SDS011;23615;51.506;7.678;2023-11-19T14:17:34;10.60;;;1.88;;
37777;SDS011;23615;51.506;7.678;2023-11-19T14:19:59;10.55;;;1.75;;
37777;SDS011;23615;51.506;7.678;2023-11-19T14:22:25;13.27;;;2.05;;
37777;SDS011;23615;51.506;7.678;2023-11-19T14:24:50;10.90;;;1.90;;
37777;SDS011;23615;51.506;7.678;2023-11-19T14:27:16;9.10;;;2.17;;
37777;SDS011;23615;51.506;7.678;2023-11-19T14:29:44;10.38;;;2.95;;
37777;SDS011;23615;51.506;7.678;2023-11-19T14:32:10;10.63;;;2.80;;
37777;SDS011;23615;51.506;7.678;2023-11-19T14:34:35;11.70;;;1.90;;
37777;SDS011;23615;51.506;7.678;2023-11-19T14:37:01;7.40;;;1.70;;
37777;SDS011;23615;51.506;7.678;2023-11-19T14:39:26;9.40;;;1.80;;
37777;SDS011;23615;51.506;7.678;2023-11-19T14:41:51;10.73;;;2.13;;
37777;SDS011;23615;51.506;7.678;2023-11-19T14:44:18;12.80;;;2.10;;
37777;SDS011;23615;51.506;7.678;2023-11-19T14:46:44;9.88;;;2.35;;
37777;SDS011;23615;51.506;7.678;2023-11-19T14:49:10;11.18;;;1.95;;
37777;SDS011;23615;51.506;7.678;2023-11-19T14:51:39;11.23;;;2.08;;
37777;SDS011;23615;51.506;7.678;2023-11-19T14:54:04;12.40;;;1.88;;
37777;SDS011;23615;51.506;7.678;2023-11-19T14:56:30;15.50;;;2.38;;